Time;durP1;ratioP1;P1;durP2;ratioP2;P2;SDS_P1;SDS_P2;PMS_P1;PMS_P2;Temp;Humidity;BMP_temperature;BMP_pressure;BME280_temperature;BME280_humidity;BME280_pressure;Samples;Min_cycle;Max_cycle;Signal;HPM_P1;HPM_P2
2021/11/03 00:00:36;;;;;;;0.67;0.67;;;;;;;-145.06;100.00;60892.56;4861041;28;20045;-87
2021/11/03 00:03:15;;;;;;;0.70;0.60;;;;;;;-145.06;100.00;60892.56;4861022;28;20256;-87
2021/11/03 00:05:55;;;;;;;0.60;0.55;;;;;;;-145.06;100.00;60892.56;4854159;28;20049;-88
2021/11/03 00:08:34;;;;;;;0.60;0.60;;;;;;;-145.06;100.00;60892.56;4870392;28;20033;-88
2021/11/03 00:11:14;;;;;;;1.17;0.85;;;;;;;-145.06;100.00;60892.56;4865745;28;20041;-88
2021/11/03 00:13:53;;;;;;;0.60;0.40;;;;;;;-145.06;100.00;60892.56;4853096;28;20045;-88
2021/11/03 00:16:33;;;;;;;1.23;0.68;;;;;;;-145.06;100.00;60892.56;4861115;28;20372;-87
2021/11/03 00:19:12;;;;;;;0.73;0.60;;;;;;;-145.06;100.00;60892.56;4866178;28;20037;-88
2021/11/03 00:21:51;;;;;;;0.75;0.65;;;;;;;-145.06;100.00;60892.56;4866239;28;20467;-87
2021/11/03 00:24:34;;;;;;;1.42;0.70;;;;;;;-145.06;100.00;60892.56;4857330;28;20393;-88
2021/11/03 00:27:13;;;;;;;1.02;0.73;;;;;;;-145.06;100.00;60892.56;4872104;28;20355;-87
2021/11/03 00:29:52;;;;;;;1.07;0.80;;;;;;;-145.06;100.00;60892.56;4860595;28;20073;-87
2021/11/03 00:32:31;;;;;;;0.98;0.85;;;;;;;-145.06;100.00;60892.56;4869031;28;20255;-87
2021/11/03 00:35:10;;;;;;;0.77;0.63;;;;;;;-145.06;100.00;60892.56;4875295;28;20033;-88
2021/11/03 00:37:49;;;;;;;1.17;0.70;;;;;;;-145.06;100.00;60892.56;4874480;28;20477;-87
2021/11/03 00:40:29;;;;;;;0.88;0.70;;;;;;;-145.06;100.00;60892.56;4866691;28;20021;-87
2021/11/03 00:43:08;;;;;;;1.10;0.75;;;;;;;-145.06;100.00;60892.56;4865079;28;20024;-88
2021/11/03 00:45:47;;;;;;;0.70;0.70;;;;;;;-145.06;100.00;60892.56;4866964;28;20124;-87
2021/11/03 00:48:27;;;;;;;0.82;0.70;;;;;;;-145.06;100.00;60892.56;4864934;28;20032;-87
2021/11/03 00:51:07;;;;;;;0.60;0.60;;;;;;;-145.06;100.00;60892.56;4866205;28;20032;-87
2021/11/03 00:53:46;;;;;;;0.88;0.70;;;;;;;-145.06;100.00;60892.56;4867762;28;21415;-88
2021/11/03 00:56:25;;;;;;;1.80;1.00;;;;;;;-145.06;100.00;60892.56;4871876;28;20075;-87
2021/11/03 00:59:04;;;;;;;1.17;0.77;;;;;;;-145.06;100.00;60892.56;4854728;28;20738;-86
2021/11/03 01:01:43;;;;;;;1.00;0.73;;;;;;;-145.06;100.00;60892.56;4886648;28;20104;-88
2021/11/03 01:04:22;;;;;;;0.98;0.77;;;;;;;-145.06;100.00;60892.56;4868475;28;20029;-87
2021/11/03 01:07:01;;;;;;;1.23;0.70;;;;;;;-145.06;100.00;60892.56;4868569;28;20029;-88
2021/11/03 01:09:40;;;;;;;1.35;1.00;;;;;;;-145.06;100.00;60892.56;4870153;28;20025;-87
2021/11/03 01:12:20;;;;;;;1.05;0.60;;;;;;;-145.06;100.00;60892.56;4891634;28;20028;-86
2021/11/03 01:14:59;;;;;;;1.58;0.98;;;;;;;-145.06;100.00;60892.56;4875069;28;20029;-86
2021/11/03 01:17:38;;;;;;;1.13;0.87;;;;;;;-145.06;100.00;60892.56;4860323;28;20036;-87
2021/11/03 01:20:17;;;;;;;1.50;1.20;;;;;;;-145.06;100.00;60892.56;4874332;28;20049;-87
2021/11/03 01:22:56;;;;;;;1.52;0.90;;;;;;;-145.06;100.00;60892.56;4864192;28;20264;-87
2021/11/03 01:25:36;;;;;;;1.83;1.17;;;;;;;-145.06;100.00;60892.56;4869986;28;20521;-87
2021/11/03 01:28:15;;;;;;;;;;;;;;;-145.06;100.00;60892.56;4872156;28;20470;-88
2021/11/03 01:30:55;;;;;;;1.80;0.85;;;;;;;-145.06;100.00;60892.56;4879814;28;19917;-88
2021/11/03 01:33:34;;;;;;;2.45;1.10;;;;;;;-145.06;100.00;60892.56;4864906;28;20037;-87
2021/11/03 01:36:13;;;;;;;2.27;0.80;;;;;;;-145.06;100.00;60892.56;4869254;28;20041;-88
2021/11/03 01:38:52;;;;;;;0.97;0.70;;;;;;;-145.06;100.00;60892.56;4864420;28;20263;-86
2021/11/03 01:41:31;;;;;;;1.33;0.85;;;;;;;-145.06;100.00;60892.56;4876338;28;20029;-87
2021/11/03 01:44:14;;;;;;;1.10;0.80;;;;;;;-145.06;100.00;60892.56;4876606;28;20665;-87
2021/11/03 01:47:17;;;;;;;0.90;0.80;;;;;;;-145.06;100.00;60892.56;4867354;28;20068;-87
2021/11/03 01:49:55;;;;;;;0.80;0.70;;;;;;;-145.06;100.00;60892.56;4866826;28;20120;-87
2021/11/03 01:52:34;;;;;;;0.70;0.60;;;;;;;-145.06;100.00;60892.56;4858072;28;20026;-87
2021/11/03 01:55:16;;;;;;;1.15;0.80;;;;;;;-145.06;100.00;60892.56;4864292;28;21202;-87
2021/11/03 01:58:05;;;;;;;1.10;0.90;;;;;;;-145.06;100.00;60892.56;4874837;28;20030;-87
2021/11/03 02:00:45;;;;;;;0.88;0.75;;;;;;;-145.06;100.00;60892.56;4869554;28;20057;-87
2021/11/03 02:03:28;;;;;;;0.65;0.52;;;;;;;-145.06;100.00;60892.56;4874235;28;20509;-88
2021/11/03 02:06:12;;;;;;;0.77;0.70;;;;;;;-145.06;100.00;60892.56;4891113;28;20060;-87
2021/11/03 02:08:53;;;;;;;0.70;0.70;;;;;;;-145.06;100.00;60892.56;4868063;28;20360;-87
2021/11/03 02:11:32;;;;;;;0.93;0.80;;;;;;;-145.06;100.00;60892.56;4875116;28;20024;-87
2021/11/03 02:14:11;;;;;;;0.80;0.80;;;;;;;-145.06;100.00;60892.56;4863921;28;20029;-87
2021/11/03 02:16:52;;;;;;;0.70;0.70;;;;;;;-145.06;100.00;60892.56;4873843;28;20025;-87
2021/11/03 02:19:35;;;;;;;0.68;0.68;;;;;;;-145.06;100.00;60892.56;4880810;28;20264;-88
2021/11/03 02:22:24;;;;;;;0.98;0.70;;;;;;;-145.06;100.00;60892.56;4861581;28;20025;-87
2021/11/03 02:25:07;;;;;;;0.85;0.60;;;;;;;-145.06;100.00;60892.56;4865372;28;20029;-87
2021/11/03 02:27:49;;;;;;;0.85;0.70;;;;;;;-145.06;100.00;60892.56;4873250;28;20064;-88
2021/11/03 02:30:28;;;;;;;0.65;0.52;;;;;;;-145.06;100.00;60892.56;4870012;28;20041;-87
2021/11/03 02:33:13;;;;;;;1.02;0.65;;;;;;;-145.06;100.00;60892.56;4863235;28;20060;-87
2021/11/03 02:35:56;;;;;;;1.35;0.60;;;;;;;-145.06;100.00;60892.56;4869598;28;20033;-88
2021/11/03 02:38:41;;;;;;;0.70;0.70;;;;;;;-145.06;100.00;60892.56;4874023;28;20037;-88
2021/11/03 02:41:24;;;;;;;0.63;0.60;;;;;;;-145.06;100.00;60892.56;4870286;28;20030;-87
2021/11/03 02:44:08;;;;;;;0.77;0.60;;;;;;;-145.06;100.00;60892.56;4871909;28;20033;-87
2021/11/03 02:46:47;;;;;;;0.65;0.60;;;;;;;-145.06;100.00;60892.56;4874090;28;20021;-88
2021/11/03 02:49:26;;;;;;;0.67;0.60;;;;;;;-145.06;100.00;60892.56;4873655;28;20041;-86
2021/11/03 02:52:13;;;;;;;1.13;0.70;;;;;;;-145.06;100.00;60892.56;4874986;28;20275;-87
2021/11/03 02:54:52;;;;;;;0.73;0.60;;;;;;;-145.06;100.00;60892.56;4868149;28;20072;-87
2021/11/03 02:57:32;;;;;;;0.60;0.60;;;;;;;-145.06;100.00;60892.56;4861890;28;20423;-87
2021/11/03 03:00:16;;;;;;;1.15;0.60;;;;;;;-145.06;100.00;60892.56;4873160;28;20029;-88
2021/11/03 03:02:56;;;;;;;0.60;0.60;;;;;;;-145.06;100.00;60892.56;4871052;28;20033;-87
2021/11/03 03:05:35;;;;;;;1.20;0.90;;;;;;;-145.06;100.00;60892.56;4877926;28;20359;-87
2021/11/03 03:08:14;;;;;;;1.17;0.88;;;;;;;-145.06;100.00;60892.56;4875970;28;20017;-87
2021/11/03 03:10:53;;;;;;;0.70;0.70;;;;;;;-145.06;100.00;60892.56;4889980;28;20041;-88
2021/11/03 03:13:32;;;;;;;1.70;0.93;;;;;;;-145.06;100.00;60892.56;4883331;28;20033;-87
2021/11/03 03:16:11;;;;;;;3.67;1.65;;;;;;;-145.06;100.00;60892.56;4876269;28;20056;-87
2021/11/03 03:18:51;;;;;;;3.83;1.90;;;;;;;-145.06;100.00;60892.56;4871114;28;20025;-87
2021/11/03 03:21:31;;;;;;;2.85;1.17;;;;;;;-145.06;100.00;60892.56;4868898;28;20025;-87
2021/11/03 03:24:13;;;;;;;1.35;0.85;;;;;;;-145.06;100.00;60892.56;4863652;28;20034;-86
2021/11/03 03:26:53;;;;;;;1.63;1.00;;;;;;;-145.06;100.00;60892.56;4867365;28;20029;-87
2021/11/03 03:29:32;;;;;;;1.17;0.80;;;;;;;-145.06;100.00;60892.56;4866572;28;20033;-88
2021/11/03 03:32:11;;;;;;;0.90;0.70;;;;;;;-145.06;100.00;60892.56;4866270;28;20028;-88
2021/11/03 03:34:50;;;;;;;1.13;0.60;;;;;;;-145.06;100.00;60892.56;4865351;28;20025;-88
2021/11/03 03:37:30;;;;;;;;;;;;;;;-145.06;100.00;60892.56;4876296;28;20025;-87
2021/11/03 03:40:09;;;;;;;1.17;0.83;;;;;;;-145.06;100.00;60892.56;4867059;28;19908;-87
2021/11/03 03:42:48;;;;;;;0.65;0.55;;;;;;;-145.06;100.00;60892.56;4874175;28;20462;-87
2021/11/03 03:45:27;;;;;;;0.73;0.60;;;;;;;-145.06;100.00;60892.56;4876192;28;20107;-88
2021/11/03 03:48:06;;;;;;;0.77;0.63;;;;;;;-145.06;100.00;60892.56;4873561;28;20024;-88
2021/11/03 03:50:45;;;;;;;0.50;0.50;;;;;;;-145.06;100.00;60892.56;4859036;28;20033;-87
2021/11/03 03:53:25;;;;;;;1.02;0.77;;;;;;;-145.06;100.00;60892.56;4874176;28;20032;-88
2021/11/03 03:56:04;;;;;;;0.52;0.50;;;;;;;-145.06;100.00;60892.56;4866850;28;20029;-87
2021/11/03 03:58:45;;;;;;;0.60;0.60;;;;;;;-145.06;100.00;60892.56;4884577;28;20029;-88
2021/11/03 04:01:27;;;;;;;0.70;0.60;;;;;;;-145.06;100.00;60892.56;4874642;28;20021;-87
2021/11/03 04:04:07;;;;;;;0.52;0.52;;;;;;;-145.06;100.00;60892.56;4866095;28;20502;-87
2021/11/03 04:06:46;;;;;;;0.80;0.57;;;;;;;-145.06;100.00;60892.56;4865603;28;20360;-87
2021/11/03 04:09:25;;;;;;;0.73;0.67;;;;;;;-145.06;100.00;60892.56;4875661;28;20037;-87
2021/11/03 04:12:05;;;;;;;0.70;0.70;;;;;;;-145.06;100.00;60892.56;4870247;28;20376;-87
2021/11/03 04:14:44;;;;;;;0.73;0.70;;;;;;;-145.06;100.00;60892.56;4874170;28;20542;-88
2021/11/03 04:17:23;;;;;;;0.60;0.55;;;;;;;-145.06;100.00;60892.56;4873691;28;20025;-87
2021/11/03 04:20:05;;;;;;;0.47;0.47;;;;;;;-145.06;100.00;60892.56;4865203;28;20049;-87
2021/11/03 04:22:44;;;;;;;0.50;0.50;;;;;;;-145.06;100.00;60892.56;4868769;28;20033;-88
2021/11/03 04:25:24;;;;;;;;;;;;;;;-145.06;100.00;60892.56;4871275;28;20028;-86
2021/11/03 04:28:03;;;;;;;0.50;0.50;;;;;;;6.46;100.00;60892.56;4868286;28;19913;-86
2021/11/03 04:30:43;;;;;;;;;;;;;;;-145.06;100.00;60892.56;4867008;28;20538;-88
2021/11/03 04:33:22;;;;;;;0.60;0.60;;;;;;;-145.06;100.00;60892.56;4863956;28;19912;-86
2021/11/03 04:36:01;;;;;;;0.60;0.50;;;;;;;-145.06;100.00;60892.56;4861262;28;20037;-87
2021/11/03 04:38:40;;;;;;;1.27;0.77;;;;;;;6.30;100.00;60892.56;4864982;28;20040;-88
2021/11/03 04:41:19;;;;;;;0.82;0.77;;;;;;;6.79;100.00;60892.56;4864427;28;20033;-87
2021/11/03 04:43:58;;;;;;;1.00;0.70;;;;;;;6.79;100.00;60892.56;4874253;28;20490;-88
2021/11/03 04:46:37;;;;;;;0.70;0.70;;;;;;;6.46;100.00;60892.56;4871096;28;20955;-87
2021/11/03 04:49:17;;;;;;;1.17;0.75;;;;;;;6.46;100.00;60892.56;4864463;28;20466;-86
2021/11/03 04:51:56;;;;;;;0.70;0.65;;;;;;;-145.06;100.00;60892.56;4864012;28;20065;-87
2021/11/03 04:54:35;;;;;;;1.00;0.90;;;;;;;6.79;100.00;60892.56;4864559;28;20061;-86
2021/11/03 04:57:18;;;;;;;1.05;0.70;;;;;;;-145.06;100.00;60892.56;4867525;28;20028;-86
2021/11/03 05:00:01;;;;;;;1.40;0.90;;;;;;;-145.06;100.00;60892.56;4865201;28;20044;-87
2021/11/03 05:02:40;;;;;;;1.10;1.00;;;;;;;6.79;100.00;60892.56;4858159;28;20748;-87
2021/11/03 05:05:19;;;;;;;0.82;0.80;;;;;;;-145.06;100.00;60892.56;4867178;28;20068;-87
2021/11/03 05:07:58;;;;;;;1.88;0.82;;;;;;;-145.06;100.00;60892.56;4870493;28;20029;-87
2021/11/03 05:10:38;;;;;;;0.85;0.70;;;;;;;-145.06;100.00;60892.56;4862453;28;20064;-88
2021/11/03 05:13:16;;;;;;;0.95;0.73;;;;;;;-145.06;100.00;60892.56;4870408;28;20482;-87
2021/11/03 05:15:55;;;;;;;0.90;0.80;;;;;;;6.79;100.00;60892.56;4865112;28;20033;-88
2021/11/03 05:18:34;;;;;;;1.10;0.80;;;;;;;6.79;100.00;60892.56;4861369;28;20530;-87
2021/11/03 05:21:13;;;;;;;1.00;0.90;;;;;;;-145.06;100.00;60892.56;4874496;28;20267;-87
2021/11/03 05:23:52;;;;;;;1.67;0.90;;;;;;;-145.06;100.00;60892.56;4863051;28;20040;-88
2021/11/03 05:26:31;;;;;;;0.80;0.73;;;;;;;-145.06;100.00;60892.56;4862689;28;20476;-87
2021/11/03 05:29:11;;;;;;;0.70;0.70;;;;;;;10.68;100.00;60892.56;4865917;28;20458;-88
2021/11/03 05:31:50;;;;;;;;;;;;;;;6.55;100.00;60892.56;4869613;28;20380;-88
2021/11/03 05:34:29;;;;;;;1.00;0.90;;;;;;;-145.06;100.00;60892.56;4878298;28;20509;-88
2021/11/03 05:37:14;;;;;;;1.73;1.20;;;;;;;-145.06;100.00;60892.56;4866191;28;20041;-88
2021/11/03 05:39:53;;;;;;;1.33;1.20;;;;;;;-145.06;100.00;60892.56;4859903;28;21012;-87
2021/11/03 05:42:32;;;;;;;1.35;1.15;;;;;;;6.79;100.00;60892.56;4865284;28;20029;-87
2021/11/03 05:45:11;;;;;;;2.63;1.00;;;;;;;-145.06;100.00;60892.56;4869175;28;20486;-86
2021/11/03 05:47:51;;;;;;;1.83;1.20;;;;;;;-145.06;100.00;60892.56;4870500;28;20037;-88
2021/11/03 05:50:33;;;;;;;1.30;1.02;;;;;;;-145.06;100.00;60892.56;4863574;28;20029;-87
2021/11/03 05:53:12;;;;;;;1.50;1.10;;;;;;;-145.06;100.00;60892.56;4861442;28;20036;-88
2021/11/03 05:55:51;;;;;;;1.90;1.10;;;;;;;-145.06;100.00;60892.56;4861396;28;20029;-88
2021/11/03 05:58:31;;;;;;;1.57;1.10;;;;;;;-145.06;100.00;60892.56;4864819;28;20029;-87
2021/11/03 06:01:10;;;;;;;1.40;0.95;;;;;;;6.70;100.00;60892.56;4861329;28;20041;-87
2021/11/03 06:03:52;;;;;;;1.07;0.90;;;;;;;6.63;100.00;60892.56;4866012;28;20029;-86
2021/11/03 06:06:32;;;;;;;2.78;0.90;;;;;;;6.62;100.00;60892.56;4862780;28;20033;-88
2021/11/03 06:09:11;;;;;;;1.15;0.85;;;;;;;6.62;100.00;60892.56;4865947;28;20053;-87
2021/11/03 06:11:50;;;;;;;1.05;0.85;;;;;;;6.79;100.00;60892.56;4861982;28;20104;-87
2021/11/03 06:14:29;;;;;;;0.90;0.90;;;;;;;-145.06;100.00;60892.56;4879336;28;20021;-87
2021/11/03 06:17:08;;;;;;;1.67;1.17;;;;;;;6.62;100.00;60892.56;4892404;28;20041;-86
2021/11/03 06:19:47;;;;;;;1.10;1.00;;;;;;;-145.06;100.00;60892.56;4870751;28;20037;-87
2021/11/03 06:22:26;;;;;;;1.77;1.13;;;;;;;-145.06;100.00;60892.56;4876168;28;20663;-87
2021/11/03 06:25:07;;;;;;;1.52;1.10;;;;;;;6.64;100.00;60892.56;4868277;28;20025;-86
2021/11/03 06:27:47;;;;;;;1.17;0.90;;;;;;;6.64;100.00;60892.56;4870375;28;20033;-87
2021/11/03 06:30:29;;;;;;;1.60;1.10;;;;;;;-145.06;100.00;60892.56;4875946;28;20032;-87
2021/11/03 06:33:08;;;;;;;1.20;1.10;;;;;;;6.65;100.00;60892.56;4866624;28;20033;-87
2021/11/03 06:35:49;;;;;;;1.80;1.20;;;;;;;-145.06;100.00;60892.56;4871797;28;20029;-87
2021/11/03 06:38:27;;;;;;;2.33;1.60;;;;;;;6.65;100.00;60892.56;4867291;28;20363;-87
2021/11/03 06:41:07;;;;;;;3.97;2.05;;;;;;;-145.06;100.00;60892.56;4871185;28;20029;-87
2021/11/03 06:43:47;;;;;;;4.45;2.17;;;;;;;-145.06;100.00;60892.56;4875107;28;20103;-87
2021/11/03 06:46:26;;;;;;;4.70;2.13;;;;;;;-145.06;100.00;60892.56;4874070;28;20037;-88
2021/11/03 06:49:05;;;;;;;4.10;2.03;;;;;;;-145.06;100.00;60892.56;4876744;28;20363;-88
2021/11/03 06:51:44;;;;;;;4.90;2.20;;;;;;;6.75;100.00;60892.56;4861101;28;20025;-87
2021/11/03 06:54:23;;;;;;;3.75;1.80;;;;;;;-145.06;100.00;60892.56;4863233;28;20029;-88
2021/11/03 06:57:03;;;;;;;3.53;2.07;;;;;;;-145.06;100.00;60892.56;4864026;28;20032;-88
2021/11/03 06:59:43;;;;;;;4.40;1.70;;;;;;;-145.06;100.00;60892.56;4865034;28;20021;-88
2021/11/03 07:02:22;;;;;;;;;;;;;;;-145.06;100.00;60892.56;4879323;28;20498;-87
2021/11/03 07:05:01;;;;;;;3.80;2.28;;;;;;;-145.06;100.00;60892.56;4860585;28;19999;-88
2021/11/03 07:07:40;;;;;;;2.97;2.10;;;;;;;-145.06;100.00;60892.56;4864037;28;20030;-87
2021/11/03 07:10:27;;;;;;;3.17;1.98;;;;;;;-145.06;100.00;60892.56;4870539;28;20092;-86
2021/11/03 07:13:08;;;;;;;4.03;2.38;;;;;;;-145.06;100.00;60892.56;4861226;28;20064;-87
2021/11/03 07:15:47;;;;;;;;;;;;;;;-145.06;100.00;60892.56;4867639;28;20029;-87
2021/11/03 07:18:26;;;;;;;;;;;;;;;-145.06;100.00;60892.56;4868302;28;20350;-87
2021/11/03 07:21:05;;;;;;;3.50;2.05;;;;;;;-145.06;100.00;60892.56;4864304;28;19912;-88
2021/11/03 07:23:44;;;;;;;2.60;1.50;;;;;;;-145.06;100.00;60892.56;4861844;28;20033;-88
2021/11/03 07:26:24;;;;;;;3.25;2.17;;;;;;;-145.06;100.00;60892.56;4861478;28;20029;-88
2021/11/03 07:29:03;;;;;;;2.97;2.00;;;;;;;-145.06;100.00;60892.56;4861688;28;20478;-87
2021/11/03 07:31:42;;;;;;;3.30;2.13;;;;;;;-145.06;100.00;60892.56;4862286;28;20033;-87
2021/11/03 07:34:21;;;;;;;3.90;2.40;;;;;;;-145.06;100.00;60892.56;4861952;28;20041;-86
2021/11/03 07:36:59;;;;;;;4.27;2.53;;;;;;;-145.06;100.00;60892.56;4863950;28;20116;-88
2021/11/03 07:39:38;;;;;;;3.00;2.03;;;;;;;-145.06;100.00;60892.56;4864169;28;20037;-87
2021/11/03 07:42:18;;;;;;;3.60;2.30;;;;;;;-145.06;100.00;60892.56;4865254;28;20036;-87
2021/11/03 07:44:56;;;;;;;2.23;1.93;;;;;;;-145.06;100.00;60892.56;4863522;28;20494;-88
2021/11/03 07:47:36;;;;;;;2.97;2.10;;;;;;;-145.06;100.00;60892.56;4857337;28;20264;-88
2021/11/03 07:50:22;;;;;;;2.83;1.95;;;;;;;-145.06;100.00;60892.56;4859383;28;21009;-88
2021/11/03 07:53:01;;;;;;;4.85;2.80;;;;;;;-145.06;100.00;60892.56;4860178;28;20037;-88
2021/11/03 07:55:43;;;;;;;3.83;2.47;;;;;;;-145.06;100.00;60892.56;4861750;28;20115;-87
2021/11/03 07:58:26;;;;;;;3.63;2.17;;;;;;;-145.06;100.00;60892.56;4868832;28;20040;-88
2021/11/03 08:01:07;;;;;;;3.95;2.67;;;;;;;-145.06;100.00;60892.56;4863761;28;20057;-87
2021/11/03 08:03:46;;;;;;;4.60;2.08;;;;;;;-145.06;100.00;60892.56;4867289;28;20037;-87
2021/11/03 08:06:26;;;;;;;4.03;2.67;;;;;;;-145.06;100.00;60892.56;4861318;28;20036;-88
2021/11/03 08:09:06;;;;;;;;;;;;;;;-145.06;100.00;60892.56;4862499;28;20068;-88
2021/11/03 08:12:09;;;;;;;3.38;2.20;;;;;;;-145.06;100.00;60892.56;4866966;28;20738;-89
2021/11/03 08:14:48;;;;;;;3.53;2.03;;;;;;;-145.06;100.00;60892.56;4865275;28;20044;-87
2021/11/03 08:17:27;;;;;;;3.93;2.30;;;;;;;-145.06;100.00;60892.56;4866209;28;20123;-88
2021/11/03 08:20:08;;;;;;;3.97;2.60;;;;;;;-145.06;100.00;60892.56;4868693;28;20037;-87
2021/11/03 08:22:48;;;;;;;3.00;2.00;;;;;;;-145.06;100.00;60892.56;4860202;28;20256;-87
2021/11/03 08:25:27;;;;;;;4.65;2.42;;;;;;;-145.06;100.00;60892.56;4859639;28;20025;-88
2021/11/03 08:28:08;;;;;;;4.32;2.60;;;;;;;-145.06;100.00;60892.56;4854413;28;20041;-88
2021/11/03 08:30:50;;;;;;;3.85;2.40;;;;;;;-145.06;100.00;60892.56;4867116;28;20371;-89
2021/11/03 08:33:35;;;;;;;4.10;2.42;;;;;;;-145.06;100.00;60892.56;4861829;28;20033;-88
2021/11/03 08:36:16;;;;;;;4.32;2.72;;;;;;;-145.06;100.00;60892.56;4861590;28;20148;-89
2021/11/03 08:38:58;;;;;;;4.30;2.63;;;;;;;-145.06;100.00;60892.56;4860345;28;20525;-88
2021/11/03 08:41:38;;;;;;;4.75;2.65;;;;;;;-145.06;100.00;60892.56;4875582;28;20029;-88
2021/11/03 08:44:17;;;;;;;4.13;2.65;;;;;;;-145.06;100.00;60892.56;4866864;28;20032;-88
2021/11/03 08:46:57;;;;;;;4.22;2.92;;;;;;;-145.06;100.00;60892.56;4866971;28;20120;-87
2021/11/03 08:49:37;;;;;;;4.82;3.17;;;;;;;-145.06;100.00;60892.56;4861123;28;20028;-86
2021/11/03 08:52:17;;;;;;;4.38;2.83;;;;;;;-145.06;100.00;60892.56;4864343;28;20025;-87
2021/11/03 08:54:57;;;;;;;4.93;3.25;;;;;;;-145.06;100.00;60892.56;4865053;28;20037;-88
2021/11/03 08:57:38;;;;;;;5.38;3.08;;;;;;;-145.06;100.00;60892.56;4864075;28;20029;-88
2021/11/03 09:00:25;;;;;;;4.68;2.95;;;;;;;-145.06;100.00;60892.56;4862093;28;20072;-89
2021/11/03 09:03:05;;;;;;;4.30;2.88;;;;;;;-145.06;100.00;60892.56;4861636;28;20033;-88
2021/11/03 09:05:44;;;;;;;;;;;;;;;7.95;100.00;60892.56;4862756;28;20506;-88
2021/11/03 09:08:24;;;;;;;3.30;2.28;;;;;;;-145.06;100.00;60892.56;4864109;28;19913;-87
2021/11/03 09:11:04;;;;;;;3.00;2.10;;;;;;;-145.06;100.00;60892.56;4857771;28;20367;-88
2021/11/03 09:13:44;;;;;;;3.35;2.45;;;;;;;-145.06;100.00;60892.56;4857998;28;21067;-87
2021/11/03 09:16:24;;;;;;;2.55;1.98;;;;;;;-145.06;100.00;60892.56;4855887;28;20032;-88
2021/11/03 09:19:03;;;;;;;3.28;2.40;;;;;;;-145.06;100.00;60892.56;4860423;28;20036;-88
2021/11/03 09:21:43;;;;;;;2.40;1.87;;;;;;;8.15;100.00;60892.56;4859976;28;20033;-89
2021/11/03 09:24:22;;;;;;;3.67;2.53;;;;;;;-145.06;100.00;60892.56;4864145;28;20032;-88
2021/11/03 09:27:05;;;;;;;3.67;2.50;;;;;;;-145.06;100.00;60892.56;4866355;28;20029;-88
2021/11/03 09:29:46;;;;;;;3.40;2.30;;;;;;;8.19;100.00;60892.56;4853924;28;20479;-88
2021/11/03 09:32:27;;;;;;;3.35;2.63;;;;;;;8.41;100.00;60892.56;4857974;28;20022;-89
2021/11/03 09:35:06;;;;;;;3.10;2.22;;;;;;;-145.06;100.00;60892.56;4860281;28;20360;-88
2021/11/03 09:37:45;;;;;;;3.17;2.30;;;;;;;8.41;100.00;60892.56;4856434;28;20053;-89
2021/11/03 09:40:29;;;;;;;2.33;1.77;;;;;;;-145.06;100.00;60892.56;4852657;28;20064;-89
2021/11/03 09:43:27;;;;;;;3.05;2.13;;;;;;;8.25;100.00;60892.56;4847996;28;20040;-88
2021/11/03 09:46:27;;;;;;;2.90;2.03;;;;;;;-145.06;100.00;60892.56;4854305;28;20038;-88
2021/11/03 09:49:20;;;;;;;2.70;2.10;;;;;;;-145.06;100.00;60892.56;4858680;28;20025;-89
2021/11/03 09:52:11;;;;;;;2.47;1.95;;;;;;;-145.06;100.00;60892.56;4857274;28;20498;-89
2021/11/03 09:54:54;;;;;;;4.25;2.20;;;;;;;-145.06;100.00;60892.56;4849271;28;20042;-88
2021/11/03 09:57:47;;;;;;;3.33;2.50;;;;;;;-145.06;100.00;60892.56;4856827;28;20045;-89
2021/11/03 10:00:39;;;;;;;2.78;2.03;;;;;;;-145.06;100.00;60892.56;4852061;28;20048;-88
2021/11/03 10:03:18;;;;;;;2.15;1.67;;;;;;;-145.06;100.00;60892.56;4856653;28;20025;-88
2021/11/03 10:06:07;;;;;;;2.42;1.63;;;;;;;8.40;100.00;60892.56;4863195;28;20045;-88
2021/11/03 10:08:49;;;;;;;2.90;1.95;;;;;;;-145.06;100.00;60892.56;4861711;28;20041;-89
2021/11/03 10:11:39;;;;;;;2.85;2.08;;;;;;;-145.06;100.00;60892.56;4863991;28;20653;-88
2021/11/03 10:14:18;;;;;;;3.97;2.03;;;;;;;-145.06;100.00;60892.56;4862937;28;20533;-88
2021/11/03 10:17:26;;;;;;;2.58;2.03;;;;;;;-145.06;100.00;60892.56;4867524;28;20033;-88
2021/11/03 10:20:31;;;;;;;3.50;2.28;;;;;;;-145.06;100.00;60892.56;4867227;28;20037;-88
2021/11/03 10:23:22;;;;;;;4.97;3.05;;;;;;;-145.06;100.00;60892.56;4869301;28;20462;-89
2021/11/03 10:26:10;;;;;;;5.32;2.47;;;;;;;-145.06;100.00;60892.56;4891051;28;20052;-87
2021/11/03 10:29:05;;;;;;;2.83;2.33;;;;;;;-145.06;100.00;60892.56;4863955;28;20041;-88
2021/11/03 10:32:10;;;;;;;3.47;2.03;;;;;;;-145.06;100.00;60892.56;4864865;28;20033;-88
2021/11/03 10:35:17;;;;;;;4.60;2.47;;;;;;;-145.06;100.00;60892.56;4858312;28;20367;-88
2021/11/03 10:38:07;;;;;;;2.90;1.90;;;;;;;-145.06;100.00;60892.56;4861635;28;20033;-88
2021/11/03 10:41:02;;;;;;;3.22;2.38;;;;;;;-145.06;100.00;60892.56;4860945;28;20061;-88
2021/11/03 10:43:43;;;;;;;2.42;1.83;;;;;;;-145.06;100.00;60892.56;4859753;28;20029;-87
2021/11/03 10:46:26;;;;;;;3.35;1.90;;;;;;;-145.06;100.00;60892.56;4866501;28;20359;-87
2021/11/03 10:49:23;;;;;;;2.72;1.90;;;;;;;-145.06;100.00;60892.56;4857186;28;20076;-88
2021/11/03 10:52:18;;;;;;;2.95;1.95;;;;;;;-145.06;100.00;60892.56;4865646;28;20475;-87
2021/11/03 10:55:00;;;;;;;2.05;1.65;;;;;;;-145.06;100.00;60892.56;4862261;28;20360;-87
2021/11/03 10:57:53;;;;;;;2.08;1.70;;;;;;;-145.06;100.00;60892.56;4862923;28;20108;-88
2021/11/03 11:00:37;;;;;;;3.58;2.05;;;;;;;-145.06;100.00;60892.56;4865946;28;20037;-87
2021/11/03 11:03:24;;;;;;;4.07;2.30;;;;;;;-145.06;100.00;60892.56;4862003;28;20037;-88
2021/11/03 11:06:14;;;;;;;2.33;1.95;;;;;;;-145.06;100.00;60892.56;4870902;28;20037;-87
2021/11/03 11:09:09;;;;;;;3.67;2.50;;;;;;;-145.06;100.00;60892.56;4862848;28;20036;-88
2021/11/03 11:11:53;;;;;;;2.28;1.90;;;;;;;-145.06;100.00;60892.56;4872402;28;20617;-87
2021/11/03 11:14:33;;;;;;;2.78;2.00;;;;;;;-145.06;100.00;60892.56;4867394;28;20589;-88
2021/11/03 11:17:19;;;;;;;2.83;2.03;;;;;;;-145.06;100.00;60892.56;4865998;28;20037;-87
2021/11/03 11:20:10;;;;;;;3.63;2.55;;;;;;;-145.06;100.00;60892.56;4869099;28;20028;-87
2021/11/03 11:23:08;;;;;;;3.22;2.22;;;;;;;-145.06;100.00;60892.56;4858964;28;20033;-87
2021/11/03 11:25:59;;;;;;;3.65;2.40;;;;;;;-145.06;100.00;60892.56;4859591;28;20033;-87
2021/11/03 11:28:52;;;;;;;3.08;2.22;;;;;;;-145.06;100.00;60892.56;4865520;28;20044;-87
2021/11/03 11:31:45;;;;;;;2.88;2.13;;;;;;;-145.06;100.00;60892.56;4859167;28;20029;-88
2021/11/03 11:35:22;;;;;;;2.47;1.92;;;;;;;-145.06;100.00;60892.56;4866325;28;20359;-87
2021/11/03 11:38:25;;;;;;;3.08;2.17;;;;;;;-145.06;100.00;60892.56;4833699;28;20029;-88
2021/11/03 11:41:14;;;;;;;2.83;2.05;;;;;;;-145.06;100.00;60892.56;4837689;28;20061;-88
2021/11/03 11:44:18;;;;;;;2.42;1.92;;;;;;;-145.06;100.00;60892.56;4877010;28;20041;-86
2021/11/03 11:47:04;;;;;;;2.60;1.70;;;;;;;-145.06;100.00;60892.56;4863491;28;20032;-88
2021/11/03 11:49:48;;;;;;;3.03;1.90;;;;;;;187.52;100.00;60892.56;4858474;28;20045;-87
2021/11/03 11:52:34;;;;;;;2.05;1.73;;;;;;;-145.06;100.00;60892.56;4856486;28;20113;-87
2021/11/03 11:55:13;;;;;;;1.83;1.58;;;;;;;-145.06;100.00;60892.56;4863243;28;20037;-88
2021/11/03 11:57:58;;;;;;;2.58;1.98;;;;;;;8.76;100.00;60892.56;4866326;28;20037;-87
2021/11/03 12:00:39;;;;;;;2.67;1.95;;;;;;;8.75;100.00;60892.56;4862957;28;20033;-87
2021/11/03 12:03:27;;;;;;;3.67;1.60;;;;;;;-145.06;100.00;60892.56;4861804;28;20029;-87
2021/11/03 12:06:10;;;;;;;1.77;1.48;;;;;;;-145.06;100.00;60892.56;4864561;28;20490;-86
2021/11/03 12:09:00;;;;;;;1.63;1.33;;;;;;;21.08;100.00;60892.56;4864863;28;20037;-87
2021/11/03 12:11:54;;;;;;;3.63;1.85;;;;;;;-145.06;100.00;60892.56;4860533;28;20663;-86
2021/11/03 12:14:54;;;;;;;2.75;1.92;;;;;;;-145.06;100.00;60892.56;4865038;28;20063;-87
2021/11/03 12:17:38;;;;;;;;;;;;;;;-145.06;100.00;60892.56;4863273;28;20041;-86
2021/11/03 12:20:23;;;;;;;1.27;1.17;;;;;;;-145.06;100.00;60892.56;4865130;28;19912;-86
2021/11/03 12:23:04;;;;;;;1.92;1.40;;;;;;;8.84;100.00;60892.56;4868925;28;20025;-87